sensor_id;sensor_type;location;lat;lon;timestamp;temperature;humidity
33903;DHT22;20194;50.950;5.346;2023-01-24T00:00:09;4.50;26.40
33903;DHT22;20194;50.950;5.346;2023-01-24T00:02:35;4.30;26.50
33903;DHT22;20194;50.950;5.346;2023-01-24T00:05:01;4.30;29.30
33903;DHT22;20194;50.950;5.346;2023-01-24T00:07:27;4.20;29.60
33903;DHT22;20194;50.950;5.346;2023-01-24T00:09:53;4.10;30.90
33903;DHT22;20194;50.950;5.346;2023-01-24T00:12:18;4.30;31.40
33903;DHT22;20194;50.950;5.346;2023-01-24T00:14:44;4.40;29.10
33903;DHT22;20194;50.950;5.346;2023-01-24T00:17:10;4.60;27.70
33903;DHT22;20194;50.950;5.346;2023-01-24T00:19:35;4.60;28.10
33903;DHT22;20194;50.950;5.346;2023-01-24T00:22:03;4.50;26.70
33903;DHT22;20194;50.950;5.346;2023-01-24T00:24:28;4.40;25.80
33903;DHT22;20194;50.950;5.346;2023-01-24T00:26:55;4.30;27.70
33903;DHT22;20194;50.950;5.346;2023-01-24T00:29:21;4.20;29.70
33903;DHT22;20194;50.950;5.346;2023-01-24T00:31:46;4.30;28.90
33903;DHT22;20194;50.950;5.346;2023-01-24T00:34:12;4.20;31.00
33903;DHT22;20194;50.950;5.346;2023-01-24T00:36:38;4.10;30.00
33903;DHT22;20194;50.950;5.346;2023-01-24T00:39:04;4.20;33.30
33903;DHT22;20194;50.950;5.346;2023-01-24T00:41:30;4.10;31.10
33903;DHT22;20194;50.950;5.346;2023-01-24T00:43:55;4.10;31.40
33903;DHT22;20194;50.950;5.346;2023-01-24T00:46:21;4.00;30.60
33903;DHT22;20194;50.950;5.346;2023-01-24T00:48:47;4.00;33.30
33903;DHT22;20194;50.950;5.346;2023-01-24T00:51:13;4.00;32.80
33903;DHT22;20194;50.950;5.346;2023-01-24T00:53:38;4.10;34.50
33903;DHT22;20194;50.950;5.346;2023-01-24T00:56:04;4.10;31.20
33903;DHT22;20194;50.950;5.346;2023-01-24T00:58:34;4.10;33.70
33903;DHT22;20194;50.950;5.346;2023-01-24T01:01:00;4.30;32.00
33903;DHT22;20194;50.950;5.346;2023-01-24T01:03:29;4.20;31.20
33903;DHT22;20194;50.950;5.346;2023-01-24T01:06:04;4.20;30.50
33903;DHT22;20194;50.950;5.346;2023-01-24T01:08:31;4.30;31.00
33903;DHT22;20194;50.950;5.346;2023-01-24T01:10:57;4.20;29.90
33903;DHT22;20194;50.950;5.346;2023-01-24T01:13:24;4.30;30.90
33903;DHT22;20194;50.950;5.346;2023-01-24T01:15:49;4.40;28.60
33903;DHT22;20194;50.950;5.346;2023-01-24T01:18:16;4.40;29.40
33903;DHT22;20194;50.950;5.346;2023-01-24T01:20:49;4.40;30.10
33903;DHT22;20194;50.950;5.346;2023-01-24T01:23:15;4.40;30.40
33903;DHT22;20194;50.950;5.346;2023-01-24T01:25:40;4.40;28.20
33903;DHT22;20194;50.950;5.346;2023-01-24T01:28:06;4.40;30.90
33903;DHT22;20194;50.950;5.346;2023-01-24T01:30:32;4.60;28.80
33903;DHT22;20194;50.950;5.346;2023-01-24T01:32:57;4.60;26.80
33903;DHT22;20194;50.950;5.346;2023-01-24T01:35:23;4.60;25.50
33903;DHT22;20194;50.950;5.346;2023-01-24T01:37:49;4.50;26.80
33903;DHT22;20194;50.950;5.346;2023-01-24T01:40:16;4.40;29.10
33903;DHT22;20194;50.950;5.346;2023-01-24T01:42:50;4.40;28.20
33903;DHT22;20194;50.950;5.346;2023-01-24T01:45:46;4.40;27.40
33903;DHT22;20194;50.950;5.346;2023-01-24T01:51:25;4.30;28.70
33903;DHT22;20194;50.950;5.346;2023-01-24T01:53:57;4.30;28.50
33903;DHT22;20194;50.950;5.346;2023-01-24T01:56:29;4.30;29.10
33903;DHT22;20194;50.950;5.346;2023-01-24T01:59:01;4.20;29.70
33903;DHT22;20194;50.950;5.346;2023-01-24T02:01:27;4.20;30.70
33903;DHT22;20194;50.950;5.346;2023-01-24T02:04:22;4.10;30.30
33903;DHT22;20194;50.950;5.346;2023-01-24T02:09:34;4.10;31.10
33903;DHT22;20194;50.950;5.346;2023-01-24T02:12:05;4.10;29.90
33903;DHT22;20194;50.950;5.346;2023-01-24T02:14:32;4.20;31.50
33903;DHT22;20194;50.950;5.346;2023-01-24T02:17:18;4.10;31.90
33903;DHT22;20194;50.950;5.346;2023-01-24T02:27:40;4.00;32.90
33903;DHT22;20194;50.950;5.346;2023-01-24T02:30:07;3.90;34.70
33903;DHT22;20194;50.950;5.346;2023-01-24T02:32:33;4.00;35.10
33903;DHT22;20194;50.950;5.346;2023-01-24T02:34:58;3.90;33.80
33903;DHT22;20194;50.950;5.346;2023-01-24T02:37:24;3.90;34.80
33903;DHT22;20194;50.950;5.346;2023-01-24T02:39:59;3.90;35.20
33903;DHT22;20194;50.950;5.346;2023-01-24T02:42:33;3.90;36.20
33903;DHT22;20194;50.950;5.346;2023-01-24T02:47:31;4.00;33.40
33903;DHT22;20194;50.950;5.346;2023-01-24T02:50:02;4.00;34.20
33903;DHT22;20194;50.950;5.346;2023-01-24T02:52:28;4.00;33.90
33903;DHT22;20194;50.950;5.346;2023-01-24T02:55:13;3.90;35.10
33903;DHT22;20194;50.950;5.346;2023-01-24T02:57:39;3.80;37.70
33903;DHT22;20194;50.950;5.346;2023-01-24T03:00:23;3.90;36.40
33903;DHT22;20194;50.950;5.346;2023-01-24T03:02:48;4.00;37.80
33903;DHT22;20194;50.950;5.346;2023-01-24T03:05:14;3.90;34.80
33903;DHT22;20194;50.950;5.346;2023-01-24T03:07:40;3.90;36.90
33903;DHT22;20194;50.950;5.346;2023-01-24T03:10:17;3.80;35.20
33903;DHT22;20194;50.950;5.346;2023-01-24T03:12:43;3.80;37.00
33903;DHT22;20194;50.950;5.346;2023-01-24T03:15:28;3.80;36.30
33903;DHT22;20194;50.950;5.346;2023-01-24T03:18:12;3.90;37.60
33903;DHT22;20194;50.950;5.346;2023-01-24T03:20:57;3.80;37.10
33903;DHT22;20194;50.950;5.346;2023-01-24T03:23:41;3.90;37.00
33903;DHT22;20194;50.950;5.346;2023-01-24T03:26:25;3.90;36.20
33903;DHT22;20194;50.950;5.346;2023-01-24T03:29:10;3.80;36.10
33903;DHT22;20194;50.950;5.346;2023-01-24T03:31:55;3.80;37.00
33903;DHT22;20194;50.950;5.346;2023-01-24T03:34:39;3.70;36.30
33903;DHT22;20194;50.950;5.346;2023-01-24T03:37:16;3.70;36.20
33903;DHT22;20194;50.950;5.346;2023-01-24T03:39:42;3.70;38.30
33903;DHT22;20194;50.950;5.346;2023-01-24T03:42:26;3.70;37.90
33903;DHT22;20194;50.950;5.346;2023-01-24T03:44:52;3.70;36.70
33903;DHT22;20194;50.950;5.346;2023-01-24T03:47:18;3.70;37.10
33903;DHT22;20194;50.950;5.346;2023-01-24T03:49:44;3.60;38.70
33903;DHT22;20194;50.950;5.346;2023-01-24T03:52:28;3.60;39.40
33903;DHT22;20194;50.950;5.346;2023-01-24T03:54:55;3.60;38.40
33903;DHT22;20194;50.950;5.346;2023-01-24T03:57:22;3.70;39.30
33903;DHT22;20194;50.950;5.346;2023-01-24T03:59:48;3.70;38.60
33903;DHT22;20194;50.950;5.346;2023-01-24T04:02:15;3.80;37.90
33903;DHT22;20194;50.950;5.346;2023-01-24T04:04:41;3.80;37.10
33903;DHT22;20194;50.950;5.346;2023-01-24T04:07:25;3.80;37.10
33903;DHT22;20194;50.950;5.346;2023-01-24T04:09:51;3.80;37.70
33903;DHT22;20194;50.950;5.346;2023-01-24T04:12:17;3.70;37.10
33903;DHT22;20194;50.950;5.346;2023-01-24T04:14:43;3.70;37.90
33903;DHT22;20194;50.950;5.346;2023-01-24T04:17:09;3.70;37.50
33903;DHT22;20194;50.950;5.346;2023-01-24T04:19:35;3.80;38.80
33903;DHT22;20194;50.950;5.346;2023-01-24T04:22:00;3.80;38.00
33903;DHT22;20194;50.950;5.346;2023-01-24T04:24:26;3.90;37.60
33903;DHT22;20194;50.950;5.346;2023-01-24T04:26:52;3.90;36.40
33903;DHT22;20194;50.950;5.346;2023-01-24T04:29:18;4.00;36.90
33903;DHT22;20194;50.950;5.346;2023-01-24T04:31:43;4.00;35.50
33903;DHT22;20194;50.950;5.346;2023-01-24T04:34:09;4.10;35.50
33903;DHT22;20194;50.950;5.346;2023-01-24T04:36:35;4.10;34.50
33903;DHT22;20194;50.950;5.346;2023-01-24T04:39:00;4.20;33.30
33903;DHT22;20194;50.950;5.346;2023-01-24T04:41:26;4.30;32.20
33903;DHT22;20194;50.950;5.346;2023-01-24T04:43:52;4.40;31.30
33903;DHT22;20194;50.950;5.346;2023-01-24T04:46:18;4.50;30.10
33903;DHT22;20194;50.950;5.346;2023-01-24T04:48:44;4.30;29.50
33903;DHT22;20194;50.950;5.346;2023-01-24T04:51:09;4.30;32.60
33903;DHT22;20194;50.950;5.346;2023-01-24T04:53:38;4.20;30.00
33903;DHT22;20194;50.950;5.346;2023-01-24T04:56:05;4.10;33.40
33903;DHT22;20194;50.950;5.346;2023-01-24T04:58:32;3.90;32.70
33903;DHT22;20194;50.950;5.346;2023-01-24T05:00:58;4.00;33.80
33903;DHT22;20194;50.950;5.346;2023-01-24T05:03:23;3.90;35.20
33903;DHT22;20194;50.950;5.346;2023-01-24T05:05:50;3.90;34.40
33903;DHT22;20194;50.950;5.346;2023-01-24T05:08:16;3.90;33.60
33903;DHT22;20194;50.950;5.346;2023-01-24T05:10:41;3.80;33.70
33903;DHT22;20194;50.950;5.346;2023-01-24T05:13:07;3.80;34.20
33903;DHT22;20194;50.950;5.346;2023-01-24T05:15:33;3.90;33.20
33903;DHT22;20194;50.950;5.346;2023-01-24T05:17:59;3.80;33.80
33903;DHT22;20194;50.950;5.346;2023-01-24T05:20:25;3.90;34.40
33903;DHT22;20194;50.950;5.346;2023-01-24T05:22:50;3.90;34.70
33903;DHT22;20194;50.950;5.346;2023-01-24T05:25:17;3.90;33.40
33903;DHT22;20194;50.950;5.346;2023-01-24T05:27:44;3.80;34.90
33903;DHT22;20194;50.950;5.346;2023-01-24T05:30:10;3.80;34.50
33903;DHT22;20194;50.950;5.346;2023-01-24T05:32:36;3.80;32.80
33903;DHT22;20194;50.950;5.346;2023-01-24T05:35:03;3.80;35.00
33903;DHT22;20194;50.950;5.346;2023-01-24T05:37:29;3.90;33.30
33903;DHT22;20194;50.950;5.346;2023-01-24T05:39:55;3.90;31.30
33903;DHT22;20194;50.950;5.346;2023-01-24T05:42:20;3.70;30.90
33903;DHT22;20194;50.950;5.346;2023-01-24T05:44:46;3.70;35.30
33903;DHT22;20194;50.950;5.346;2023-01-24T05:47:12;3.70;34.20
33903;DHT22;20194;50.950;5.346;2023-01-24T05:49:37;3.70;34.70
33903;DHT22;20194;50.950;5.346;2023-01-24T05:52:03;3.80;34.50
33903;DHT22;20194;50.950;5.346;2023-01-24T05:54:29;3.80;34.80
33903;DHT22;20194;50.950;5.346;2023-01-24T05:56:54;3.70;33.90
33903;DHT22;20194;50.950;5.346;2023-01-24T05:59:20;3.90;33.60
33903;DHT22;20194;50.950;5.346;2023-01-24T06:01:46;3.90;31.70
33903;DHT22;20194;50.950;5.346;2023-01-24T06:04:12;3.70;32.90
33903;DHT22;20194;50.950;5.346;2023-01-24T06:06:38;3.70;34.50
33903;DHT22;20194;50.950;5.346;2023-01-24T06:09:04;3.70;34.60
33903;DHT22;20194;50.950;5.346;2023-01-24T06:11:30;3.70;32.70
33903;DHT22;20194;50.950;5.346;2023-01-24T06:13:58;3.70;32.20
33903;DHT22;20194;50.950;5.346;2023-01-24T06:16:25;3.60;32.30
33903;DHT22;20194;50.950;5.346;2023-01-24T06:18:52;3.70;34.20
33903;DHT22;20194;50.950;5.346;2023-01-24T06:24:17;3.50;35.00
33903;DHT22;20194;50.950;5.346;2023-01-24T06:26:43;3.50;34.50
33903;DHT22;20194;50.950;5.346;2023-01-24T06:29:10;3.50;34.60
33903;DHT22;20194;50.950;5.346;2023-01-24T06:37:01;3.60;31.60
33903;DHT22;20194;50.950;5.346;2023-01-24T06:39:30;3.60;32.20
33903;DHT22;20194;50.950;5.346;2023-01-24T06:41:56;3.60;32.20
33903;DHT22;20194;50.950;5.346;2023-01-24T06:44:22;3.50;32.90
33903;DHT22;20194;50.950;5.346;2023-01-24T06:46:47;3.60;31.60
33903;DHT22;20194;50.950;5.346;2023-01-24T06:49:14;3.50;30.80
33903;DHT22;20194;50.950;5.346;2023-01-24T06:51:39;3.40;32.00
33903;DHT22;20194;50.950;5.346;2023-01-24T06:54:05;3.50;34.40
33903;DHT22;20194;50.950;5.346;2023-01-24T06:56:31;3.50;32.20
33903;DHT22;20194;50.950;5.346;2023-01-24T06:58:57;3.50;34.50
33903;DHT22;20194;50.950;5.346;2023-01-24T07:01:23;3.50;33.80
33903;DHT22;20194;50.950;5.346;2023-01-24T07:03:48;3.40;33.40
33903;DHT22;20194;50.950;5.346;2023-01-24T07:06:14;3.40;32.70
33903;DHT22;20194;50.950;5.346;2023-01-24T07:08:41;3.40;33.70
33903;DHT22;20194;50.950;5.346;2023-01-24T07:11:06;3.40;35.10
33903;DHT22;20194;50.950;5.346;2023-01-24T07:13:32;3.50;34.20
33903;DHT22;20194;50.950;5.346;2023-01-24T07:16:01;3.50;32.40
33903;DHT22;20194;50.950;5.346;2023-01-24T07:18:27;3.60;32.00
33903;DHT22;20194;50.950;5.346;2023-01-24T07:20:53;3.60;29.30
33903;DHT22;20194;50.950;5.346;2023-01-24T07:23:24;3.50;29.80
33903;DHT22;20194;50.950;5.346;2023-01-24T07:25:53;3.40;32.90
33903;DHT22;20194;50.950;5.346;2023-01-24T07:28:20;3.30;32.20
33903;DHT22;20194;50.950;5.346;2023-01-24T07:30:47;3.40;32.90
33903;DHT22;20194;50.950;5.346;2023-01-24T07:33:14;3.30;31.50
33903;DHT22;20194;50.950;5.346;2023-01-24T07:35:41;3.30;34.00
33903;DHT22;20194;50.950;5.346;2023-01-24T07:38:07;3.40;31.40
33903;DHT22;20194;50.950;5.346;2023-01-24T07:40:33;3.40;31.50
33903;DHT22;20194;50.950;5.346;2023-01-24T07:43:00;3.40;31.60
33903;DHT22;20194;50.950;5.346;2023-01-24T07:45:26;3.30;30.70
33903;DHT22;20194;50.950;5.346;2023-01-24T07:47:56;3.40;32.60
33903;DHT22;20194;50.950;5.346;2023-01-24T07:50:24;3.50;31.00
33903;DHT22;20194;50.950;5.346;2023-01-24T07:52:51;3.50;29.40
33903;DHT22;20194;50.950;5.346;2023-01-24T07:55:17;3.50;30.00
33903;DHT22;20194;50.950;5.346;2023-01-24T07:57:43;3.60;30.00
33903;DHT22;20194;50.950;5.346;2023-01-24T08:00:09;3.70;33.00
33903;DHT22;20194;50.950;5.346;2023-01-24T08:02:35;3.60;29.20
33903;DHT22;20194;50.950;5.346;2023-01-24T08:05:01;3.70;29.90
33903;DHT22;20194;50.950;5.346;2023-01-24T08:07:27;3.70;28.70
33903;DHT22;20194;50.950;5.346;2023-01-24T08:09:53;3.60;25.50
33903;DHT22;20194;50.950;5.346;2023-01-24T08:12:19;3.60;28.70
33903;DHT22;20194;50.950;5.346;2023-01-24T08:14:44;3.60;30.30
33903;DHT22;20194;50.950;5.346;2023-01-24T08:17:10;3.50;30.10
33903;DHT22;20194;50.950;5.346;2023-01-24T08:19:36;3.40;29.40
33903;DHT22;20194;50.950;5.346;2023-01-24T08:22:03;3.50;29.10
33903;DHT22;20194;50.950;5.346;2023-01-24T08:24:29;3.50;30.40
33903;DHT22;20194;50.950;5.346;2023-01-24T08:26:54;3.60;28.70
33903;DHT22;20194;50.950;5.346;2023-01-24T08:29:20;3.60;27.90
33903;DHT22;20194;50.950;5.346;2023-01-24T08:31:46;3.50;27.50
33903;DHT22;20194;50.950;5.346;2023-01-24T08:34:14;3.50;29.80
33903;DHT22;20194;50.950;5.346;2023-01-24T08:36:39;3.60;29.30
33903;DHT22;20194;50.950;5.346;2023-01-24T08:39:05;3.70;27.90
33903;DHT22;20194;50.950;5.346;2023-01-24T08:41:31;3.80;26.70
33903;DHT22;20194;50.950;5.346;2023-01-24T08:43:57;3.90;25.60
33903;DHT22;20194;50.950;5.346;2023-01-24T08:46:23;3.80;25.30
33903;DHT22;20194;50.950;5.346;2023-01-24T08:48:49;3.90;26.10
33903;DHT22;20194;50.950;5.346;2023-01-24T08:51:14;3.90;26.10
33903;DHT22;20194;50.950;5.346;2023-01-24T08:53:40;3.90;24.50
33903;DHT22;20194;50.950;5.346;2023-01-24T08:56:06;3.90;25.10
33903;DHT22;20194;50.950;5.346;2023-01-24T08:58:35;3.90;23.70
33903;DHT22;20194;50.950;5.346;2023-01-24T09:01:05;3.90;24.10
33903;DHT22;20194;50.950;5.346;2023-01-24T09:03:31;3.90;25.00
33903;DHT22;20194;50.950;5.346;2023-01-24T09:05:57;3.90;25.00
33903;DHT22;20194;50.950;5.346;2023-01-24T09:08:23;3.90;23.50
33903;DHT22;20194;50.950;5.346;2023-01-24T09:10:49;3.70;24.90
33903;DHT22;20194;50.950;5.346;2023-01-24T09:13:15;3.90;24.10
33903;DHT22;20194;50.950;5.346;2023-01-24T09:15:40;3.90;23.90
33903;DHT22;20194;50.950;5.346;2023-01-24T09:18:06;3.80;23.50
33903;DHT22;20194;50.950;5.346;2023-01-24T09:20:32;3.70;24.50
33903;DHT22;20194;50.950;5.346;2023-01-24T09:22:57;3.70;24.90
33903;DHT22;20194;50.950;5.346;2023-01-24T09:25:23;3.80;25.10
33903;DHT22;20194;50.950;5.346;2023-01-24T09:27:53;3.80;26.70
33903;DHT22;20194;50.950;5.346;2023-01-24T09:30:19;3.60;26.20
33903;DHT22;20194;50.950;5.346;2023-01-24T09:32:46;3.50;26.50
33903;DHT22;20194;50.950;5.346;2023-01-24T09:35:11;3.50;26.70
33903;DHT22;20194;50.950;5.346;2023-01-24T09:37:37;3.50;27.20
33903;DHT22;20194;50.950;5.346;2023-01-24T09:40:03;3.50;29.80
33903;DHT22;20194;50.950;5.346;2023-01-24T09:42:41;3.50;29.20
33903;DHT22;20194;50.950;5.346;2023-01-24T09:45:22;3.70;28.70
33903;DHT22;20194;50.950;5.346;2023-01-24T09:47:58;3.90;28.30
33903;DHT22;20194;50.950;5.346;2023-01-24T09:50:33;3.90;24.70
33903;DHT22;20194;50.950;5.346;2023-01-24T09:53:03;3.70;23.30
33903;DHT22;20194;50.950;5.346;2023-01-24T09:55:34;3.70;24.80
33903;DHT22;20194;50.950;5.346;2023-01-24T10:01:05;3.80;24.00
33903;DHT22;20194;50.950;5.346;2023-01-24T10:03:35;3.90;25.80
33903;DHT22;20194;50.950;5.346;2023-01-24T10:06:16;3.90;27.00
33903;DHT22;20194;50.950;5.346;2023-01-24T10:08:55;3.80;23.60
33903;DHT22;20194;50.950;5.346;2023-01-24T10:20:17;3.80;23.10
33903;DHT22;20194;50.950;5.346;2023-01-24T10:25:26;4.00;23.80
33903;DHT22;20194;50.950;5.346;2023-01-24T10:27:55;4.00;24.00
33903;DHT22;20194;50.950;5.346;2023-01-24T10:33:05;3.80;23.80
33903;DHT22;20194;50.950;5.346;2023-01-24T10:35:56;3.70;25.00
33903;DHT22;20194;50.950;5.346;2023-01-24T10:38:22;3.60;23.50
33903;DHT22;20194;50.950;5.346;2023-01-24T10:40:52;3.70;25.20
33903;DHT22;20194;50.950;5.346;2023-01-24T10:43:19;3.70;22.80
33903;DHT22;20194;50.950;5.346;2023-01-24T10:51:16;3.70;23.10
33903;DHT22;20194;50.950;5.346;2023-01-24T10:53:42;3.70;23.10
33903;DHT22;20194;50.950;5.346;2023-01-24T10:56:08;3.60;23.80
33903;DHT22;20194;50.950;5.346;2023-01-24T10:59:03;3.70;25.60
33903;DHT22;20194;50.950;5.346;2023-01-24T11:01:39;3.80;23.90
33903;DHT22;20194;50.950;5.346;2023-01-24T11:04:27;3.90;22.90
33903;DHT22;20194;50.950;5.346;2023-01-24T11:06:54;3.90;23.10
33903;DHT22;20194;50.950;5.346;2023-01-24T11:09:22;3.90;23.00
33903;DHT22;20194;50.950;5.346;2023-01-24T11:11:57;3.90;23.20
33903;DHT22;20194;50.950;5.346;2023-01-24T11:14:32;3.90;24.50
33903;DHT22;20194;50.950;5.346;2023-01-24T11:17:01;3.80;23.40
33903;DHT22;20194;50.950;5.346;2023-01-24T11:19:35;3.80;25.70
33903;DHT22;20194;50.950;5.346;2023-01-24T11:22:19;3.90;24.20
33903;DHT22;20194;50.950;5.346;2023-01-24T11:24:46;3.90;22.40
33903;DHT22;20194;50.950;5.346;2023-01-24T11:27:15;4.00;21.10
33903;DHT22;20194;50.950;5.346;2023-01-24T11:29:41;3.90;19.20
33903;DHT22;20194;50.950;5.346;2023-01-24T11:35:03;4.00;20.60
33903;DHT22;20194;50.950;5.346;2023-01-24T11:40:41;4.20;19.90
33903;DHT22;20194;50.950;5.346;2023-01-24T11:48:40;4.30;18.50
33903;DHT22;20194;50.950;5.346;2023-01-24T12:08:19;3.90;24.60
33903;DHT22;20194;50.950;5.346;2023-01-24T12:11:04;3.80;20.30
33903;DHT22;20194;50.950;5.346;2023-01-24T12:14:06;3.80;22.00
33903;DHT22;20194;50.950;5.346;2023-01-24T12:22:52;4.00;22.20
33903;DHT22;20194;50.950;5.346;2023-01-24T12:25:25;4.00;21.40
33903;DHT22;20194;50.950;5.346;2023-01-24T12:28:00;4.10;19.70
33903;DHT22;20194;50.950;5.346;2023-01-24T12:30:37;4.20;21.20
33903;DHT22;20194;50.950;5.346;2023-01-24T12:35:55;4.00;20.40
33903;DHT22;20194;50.950;5.346;2023-01-24T12:38:26;4.10;20.10
33903;DHT22;20194;50.950;5.346;2023-01-24T12:54:49;4.10;20.90
33903;DHT22;20194;50.950;5.346;2023-01-24T12:57:30;4.20;20.40
33903;DHT22;20194;50.950;5.346;2023-01-24T12:59:58;4.20;19.20
33903;DHT22;20194;50.950;5.346;2023-01-24T13:13:32;4.40;19.50
33903;DHT22;20194;50.950;5.346;2023-01-24T13:16:15;4.50;17.70
33903;DHT22;20194;50.950;5.346;2023-01-24T13:21:23;4.30;21.40
33903;DHT22;20194;50.950;5.346;2023-01-24T13:32:16;4.30;19.30
33903;DHT22;20194;50.950;5.346;2023-01-24T13:34:54;4.50;19.10
33903;DHT22;20194;50.950;5.346;2023-01-24T13:37:22;4.40;18.00
33903;DHT22;20194;50.950;5.346;2023-01-24T13:40:05;4.40;20.00
33903;DHT22;20194;50.950;5.346;2023-01-24T13:42:38;4.30;19.90
33903;DHT22;20194;50.950;5.346;2023-01-24T13:47:49;4.40;19.80
33903;DHT22;20194;50.950;5.346;2023-01-24T13:50:20;4.50;19.00
33903;DHT22;20194;50.950;5.346;2023-01-24T13:52:48;4.50;20.10
33903;DHT22;20194;50.950;5.346;2023-01-24T14:06:11;4.60;15.00
33903;DHT22;20194;50.950;5.346;2023-01-24T14:08:52;4.60;16.70
33903;DHT22;20194;50.950;5.346;2023-01-24T14:11:22;4.60;16.80
33903;DHT22;20194;50.950;5.346;2023-01-24T14:21:54;4.30;18.10
33903;DHT22;20194;50.950;5.346;2023-01-24T14:25:02;4.10;22.00
33903;DHT22;20194;50.950;5.346;2023-01-24T14:27:38;4.10;22.80
33903;DHT22;20194;50.950;5.346;2023-01-24T14:32:50;4.10;20.60
33903;DHT22;20194;50.950;5.346;2023-01-24T14:37:49;4.20;25.20
33903;DHT22;20194;50.950;5.346;2023-01-24T14:40:26;4.40;25.10
33903;DHT22;20194;50.950;5.346;2023-01-24T14:43:02;4.30;21.70
33903;DHT22;20194;50.950;5.346;2023-01-24T14:45:30;4.10;19.40
33903;DHT22;20194;50.950;5.346;2023-01-24T14:47:57;4.10;23.50
33903;DHT22;20194;50.950;5.346;2023-01-24T14:52:51;4.10;23.30
33903;DHT22;20194;50.950;5.346;2023-01-24T14:57:43;4.20;21.70
33903;DHT22;20194;50.950;5.346;2023-01-24T15:05:30;4.20;19.80
33903;DHT22;20194;50.950;5.346;2023-01-24T15:07:58;4.20;23.80
33903;DHT22;20194;50.950;5.346;2023-01-24T15:10:26;4.30;21.60
33903;DHT22;20194;50.950;5.346;2023-01-24T15:12:54;4.30;21.20
33903;DHT22;20194;50.950;5.346;2023-01-24T15:15:21;4.20;23.80
33903;DHT22;20194;50.950;5.346;2023-01-24T15:17:48;4.10;21.70
33903;DHT22;20194;50.950;5.346;2023-01-24T15:20:24;4.00;23.80
33903;DHT22;20194;50.950;5.346;2023-01-24T15:22:53;4.00;24.20
33903;DHT22;20194;50.950;5.346;2023-01-24T15:27:45;3.90;28.60
33903;DHT22;20194;50.950;5.346;2023-01-24T15:32:42;3.90;23.60
33903;DHT22;20194;50.950;5.346;2023-01-24T15:41:02;4.00;25.30
33903;DHT22;20194;50.950;5.346;2023-01-24T15:43:41;3.90;25.30
33903;DHT22;20194;50.950;5.346;2023-01-24T15:46:35;4.00;26.00
33903;DHT22;20194;50.950;5.346;2023-01-24T15:49:35;4.00;24.60
33903;DHT22;20194;50.950;5.346;2023-01-24T15:52:21;3.90;24.90
33903;DHT22;20194;50.950;5.346;2023-01-24T15:59:51;3.80;27.20
33903;DHT22;20194;50.950;5.346;2023-01-24T16:02:17;3.80;28.50
33903;DHT22;20194;50.950;5.346;2023-01-24T16:04:44;3.90;27.00
33903;DHT22;20194;50.950;5.346;2023-01-24T16:07:11;4.00;26.20
33903;DHT22;20194;50.950;5.346;2023-01-24T16:09:37;4.10;26.80
33903;DHT22;20194;50.950;5.346;2023-01-24T16:12:03;4.00;25.10
33903;DHT22;20194;50.950;5.346;2023-01-24T16:14:29;4.00;23.70
33903;DHT22;20194;50.950;5.346;2023-01-24T16:16:58;4.00;26.60
33903;DHT22;20194;50.950;5.346;2023-01-24T16:19:26;4.00;24.10
33903;DHT22;20194;50.950;5.346;2023-01-24T16:21:52;3.90;26.20
33903;DHT22;20194;50.950;5.346;2023-01-24T16:24:18;3.80;25.30
33903;DHT22;20194;50.950;5.346;2023-01-24T16:26:46;3.80;26.80
33903;DHT22;20194;50.950;5.346;2023-01-24T16:29:25;3.80;27.60
33903;DHT22;20194;50.950;5.346;2023-01-24T16:31:52;3.80;25.50
33903;DHT22;20194;50.950;5.346;2023-01-24T16:34:18;3.60;27.40
33903;DHT22;20194;50.950;5.346;2023-01-24T16:36:44;3.60;28.40
33903;DHT22;20194;50.950;5.346;2023-01-24T16:39:18;3.60;28.80
33903;DHT22;20194;50.950;5.346;2023-01-24T16:41:46;3.60;28.60
33903;DHT22;20194;50.950;5.346;2023-01-24T16:44:12;3.60;27.40
33903;DHT22;20194;50.950;5.346;2023-01-24T16:46:39;3.50;28.90
33903;DHT22;20194;50.950;5.346;2023-01-24T16:49:05;3.60;29.20
33903;DHT22;20194;50.950;5.346;2023-01-24T16:51:31;3.70;27.60
33903;DHT22;20194;50.950;5.346;2023-01-24T16:53:57;3.70;26.00
33903;DHT22;20194;50.950;5.346;2023-01-24T16:56:23;3.70;26.40
33903;DHT22;20194;50.950;5.346;2023-01-24T16:58:54;3.60;25.80
33903;DHT22;20194;50.950;5.346;2023-01-24T17:01:20;3.60;26.80
33903;DHT22;20194;50.950;5.346;2023-01-24T17:03:50;3.70;26.50
33903;DHT22;20194;50.950;5.346;2023-01-24T17:06:16;3.70;26.70
33903;DHT22;20194;50.950;5.346;2023-01-24T17:08:42;3.60;26.60
33903;DHT22;20194;50.950;5.346;2023-01-24T17:11:09;3.50;26.20
33903;DHT22;20194;50.950;5.346;2023-01-24T17:13:36;3.50;29.70
33903;DHT22;20194;50.950;5.346;2023-01-24T17:16:08;3.60;29.10
33903;DHT22;20194;50.950;5.346;2023-01-24T17:18:36;3.60;26.70
33903;DHT22;20194;50.950;5.346;2023-01-24T17:21:13;3.70;28.10
33903;DHT22;20194;50.950;5.346;2023-01-24T17:23:40;3.70;25.20
33903;DHT22;20194;50.950;5.346;2023-01-24T17:26:07;3.70;25.20
33903;DHT22;20194;50.950;5.346;2023-01-24T17:28:35;3.70;26.90
33903;DHT22;20194;50.950;5.346;2023-01-24T17:31:10;3.60;26.00
33903;DHT22;20194;50.950;5.346;2023-01-24T17:33:36;3.60;25.50
33903;DHT22;20194;50.950;5.346;2023-01-24T17:36:03;3.70;27.10
33903;DHT22;20194;50.950;5.346;2023-01-24T17:38:28;3.80;26.30
33903;DHT22;20194;50.950;5.346;2023-01-24T17:40:54;3.80;24.80
33903;DHT22;20194;50.950;5.346;2023-01-24T17:43:21;3.80;24.60
33903;DHT22;20194;50.950;5.346;2023-01-24T17:45:54;3.90;22.60
33903;DHT22;20194;50.950;5.346;2023-01-24T17:48:22;3.80;24.10
33903;DHT22;20194;50.950;5.346;2023-01-24T17:50:48;3.80;24.40
33903;DHT22;20194;50.950;5.346;2023-01-24T17:53:15;3.70;24.70
33903;DHT22;20194;50.950;5.346;2023-01-24T17:55:41;3.80;23.90
33903;DHT22;20194;50.950;5.346;2023-01-24T17:58:07;3.70;23.40
33903;DHT22;20194;50.950;5.346;2023-01-24T18:00:33;3.70;23.20
33903;DHT22;20194;50.950;5.346;2023-01-24T18:02:58;3.80;23.30
33903;DHT22;20194;50.950;5.346;2023-01-24T18:05:24;3.70;24.70
33903;DHT22;20194;50.950;5.346;2023-01-24T18:07:51;3.60;24.50
33903;DHT22;20194;50.950;5.346;2023-01-24T18:10:17;3.60;26.60
33903;DHT22;20194;50.950;5.346;2023-01-24T18:12:42;3.60;23.00
33903;DHT22;20194;50.950;5.346;2023-01-24T18:15:09;3.60;25.70
33903;DHT22;20194;50.950;5.346;2023-01-24T18:17:36;3.70;24.70
33903;DHT22;20194;50.950;5.346;2023-01-24T18:20:02;3.70;20.20
33903;DHT22;20194;50.950;5.346;2023-01-24T18:22:29;3.60;22.30
33903;DHT22;20194;50.950;5.346;2023-01-24T18:24:55;3.70;26.00
33903;DHT22;20194;50.950;5.346;2023-01-24T18:27:20;3.70;23.80
33903;DHT22;20194;50.950;5.346;2023-01-24T18:29:47;3.60;25.80
33903;DHT22;20194;50.950;5.346;2023-01-24T18:32:13;3.60;24.70
33903;DHT22;20194;50.950;5.346;2023-01-24T18:34:39;3.60;24.80
33903;DHT22;20194;50.950;5.346;2023-01-24T18:37:05;3.50;26.30
33903;DHT22;20194;50.950;5.346;2023-01-24T18:39:31;3.40;23.90
33903;DHT22;20194;50.950;5.346;2023-01-24T18:41:56;3.50;27.20
33903;DHT22;20194;50.950;5.346;2023-01-24T18:44:23;3.50;24.60
33903;DHT22;20194;50.950;5.346;2023-01-24T18:46:50;3.50;26.50
33903;DHT22;20194;50.950;5.346;2023-01-24T18:49:16;3.50;27.30